North Woolwich, United Kingdom
Current Conditions -  °F | °C
As of 1:20 PM on Wednesday 22 Oct 2014 (Local Time) from EGLC Reporting Station
Scattered Clouds Scattered Clouds  
Wind Chill: 57°   Ceiling: Unl
Heat Index: 57°   Visibility: 6mi
Dew Point: 41°   Wind: 14mph
Humidity: 55%   Direction: 280°W
Pressure: 30.27"   Gusts: NA
Location:  51.51°N, 0.02°E
Report Text: EGLC 221220Z 28012KT 9999 SCT036 14/05 Q1025
Loading
Personal Weather Stations






























Interactive Weather Map
Tropical Storm Tracking
New forecast layout! Learn more

10-Day Weather Forecast

Advertisements
Track Severe Weather on mobile